Country
Station

 

Weather  for  Lufkin, Angelina County Airport  -  United States    United States

  
13 °C (55 °F)
    
 
 

Current METAR for Lufkin, Angelina County Airport is :

KLFK 111853Z AUTO 17010KT 10SM CLR 13/02 A3035 RMK AO2 SLP277 T01330017

 

This is a report for Lufkin, Angelina County Airport - United States.
 
The report was made 35 minutes ago, at 18:53 UTC .
The wind was blowing at a speed of 5.1 meters per second (11.5 miles per hour) from south (170°).
 
The temperature was 13 °C (55 °F), with a dew-point at 2 °C (36 °F).
The atmospheric pressure was 1028 hPa (30.35 inHg).
The relative humidity was 47.1%.
 
The sky was clear.
 
The overall visibility was 16.1 kilometers (10.0 miles).
 

 
 
 
 

Country :   A   B   C   D   E   F   G   H   I   J   K   L   M   N   O   P   Q   R   S   T   U   V   W   Y   Z

 

Site Info  |  Disclaimer  |  Credits  |  Privacy
Contact us  |  Add to favorites
© 2013-2018 METARs - All rights reserved